createdAt,value
2022-10-09T00:01:17.133Z,12.67
2022-10-09T00:03:45.982Z,12.69
2022-10-09T00:06:16.548Z,12.74
2022-10-09T00:08:46.332Z,12.77
2022-10-09T00:11:19.095Z,12.75
2022-10-09T00:13:45.640Z,12.80
2022-10-09T00:16:14.643Z,12.80
2022-10-09T00:18:43.084Z,12.78
2022-10-09T00:21:31.248Z,12.82
2022-10-09T00:24:00.803Z,12.86
2022-10-09T00:26:27.771Z,12.94
2022-10-09T00:28:55.789Z,12.95
2022-10-09T00:31:23.103Z,12.92
2022-10-09T00:33:49.946Z,12.97
2022-10-09T00:36:23.037Z,12.85
2022-10-09T00:38:49.803Z,12.84
2022-10-09T00:41:19.885Z,12.92
2022-10-09T00:43:52.880Z,13.01
2022-10-09T00:46:35.861Z,13.08
2022-10-09T00:49:23.634Z,13.15
2022-10-09T00:51:51.731Z,13.24
2022-10-09T00:54:22.622Z,13.23
2022-10-09T00:56:49.877Z,13.25
2022-10-09T00:59:17.858Z,13.25
2022-10-09T01:01:45.386Z,13.27
2022-10-09T01:04:12.492Z,13.22
2022-10-09T01:07:05.697Z,13.25
2022-10-09T01:09:39.727Z,13.24
2022-10-09T01:12:09.133Z,13.19
2022-10-09T01:14:46.606Z,13.16
2022-10-09T01:18:09.191Z,13.08
2022-10-09T01:20:49.017Z,13.03
2022-10-09T01:23:31.188Z,13.00
2022-10-09T01:26:09.745Z,12.97
2022-10-09T01:28:39.122Z,12.96
2022-10-09T01:31:07.557Z,12.92
2022-10-09T01:33:34.803Z,12.92
2022-10-09T01:36:03.173Z,12.90
2022-10-09T01:38:31.150Z,12.86
2022-10-09T01:40:58.639Z,12.86
2022-10-09T01:43:25.190Z,12.88
2022-10-09T01:45:51.794Z,12.85
2022-10-09T01:48:24.857Z,12.79
2022-10-09T01:50:59.406Z,12.74
2022-10-09T01:53:26.352Z,12.64
2022-10-09T01:56:02.538Z,12.64
2022-10-09T01:59:02.176Z,12.55
2022-10-09T02:01:35.759Z,12.51
2022-10-09T02:04:05.803Z,12.36
2022-10-09T02:06:34.149Z,12.33
2022-10-09T02:09:04.133Z,12.28
2022-10-09T02:11:33.216Z,12.23
2022-10-09T02:13:59.865Z,12.07
2022-10-09T02:16:45.926Z,12.03
2022-10-09T02:19:50.244Z,12.06
2022-10-09T02:22:27.698Z,12.06
2022-10-09T02:24:56.655Z,12.11
2022-10-09T02:27:23.357Z,12.17
2022-10-09T02:29:50.825Z,12.14
2022-10-09T02:32:17.714Z,12.03
2022-10-09T02:34:44.682Z,12.03
2022-10-09T02:37:11.238Z,12.07
2022-10-09T02:39:38.048Z,12.01
2022-10-09T02:42:04.673Z,11.93
2022-10-09T02:44:31.261Z,11.96
2022-10-09T02:46:57.768Z,12.00
2022-10-09T02:49:24.357Z,11.94
2022-10-09T02:51:50.885Z,11.93
2022-10-09T02:54:17.793Z,11.90
2022-10-09T02:56:44.329Z,11.84
2022-10-09T02:59:10.907Z,11.84
2022-10-09T03:01:37.542Z,11.78
2022-10-09T03:04:05.051Z,11.74
2022-10-09T03:06:32.004Z,11.73
2022-10-09T03:08:58.534Z,11.64
2022-10-09T03:11:26.538Z,11.64
2022-10-09T03:13:54.394Z,11.67
2022-10-09T03:16:26.347Z,11.69
2022-10-09T03:18:54.059Z,11.62
2022-10-09T03:21:23.841Z,11.52
2022-10-09T03:23:50.533Z,11.45
2022-10-09T03:26:20.682Z,11.45
2022-10-09T03:28:49.354Z,11.45
2022-10-09T03:31:33.395Z,11.39
2022-10-09T03:34:04.657Z,11.37
2022-10-09T03:36:31.205Z,11.30
2022-10-09T03:38:57.747Z,11.17
2022-10-09T03:41:24.335Z,11.17
2022-10-09T03:43:50.886Z,11.09
2022-10-09T03:46:17.480Z,10.99
2022-10-09T03:48:44.078Z,10.98
2022-10-09T03:51:10.689Z,10.98
2022-10-09T03:53:37.312Z,10.88
2022-10-09T03:56:03.875Z,10.79
2022-10-09T03:58:30.510Z,10.77
2022-10-09T04:00:57.085Z,10.69
2022-10-09T04:03:24.206Z,10.60
2022-10-09T04:05:50.694Z,10.59
2022-10-09T04:08:17.220Z,10.52
2022-10-09T04:10:43.887Z,10.55
2022-10-09T04:13:10.543Z,10.50
2022-10-09T04:15:37.701Z,10.53
2022-10-09T04:18:04.949Z,10.49
2022-10-09T04:20:31.918Z,10.50
2022-10-09T04:22:58.445Z,10.44
2022-10-09T04:25:25.053Z,10.43
2022-10-09T04:27:51.562Z,10.38
2022-10-09T04:30:18.066Z,10.42
2022-10-09T04:32:44.676Z,10.45
2022-10-09T04:35:11.226Z,10.47
2022-10-09T04:37:37.857Z,10.47
2022-10-09T04:40:04.957Z,10.44
2022-10-09T04:42:31.469Z,10.41
2022-10-09T04:44:58.138Z,10.39
2022-10-09T04:47:24.720Z,10.41
2022-10-09T04:49:51.236Z,10.40
2022-10-09T04:52:17.810Z,10.38
2022-10-09T04:54:44.380Z,10.33
2022-10-09T04:57:10.887Z,10.28
2022-10-09T04:59:37.425Z,10.22
2022-10-09T05:02:04.095Z,10.24
2022-10-09T05:04:30.801Z,10.15
2022-10-09T05:06:57.330Z,10.13
2022-10-09T05:09:23.910Z,10.06
2022-10-09T05:11:50.728Z,9.98
2022-10-09T05:14:17.278Z,9.99
2022-10-09T05:17:08.176Z,9.98
2022-10-09T05:19:31.362Z,9.98
2022-10-09T05:21:58.682Z,9.96
2022-10-09T05:24:25.294Z,10.02
2022-10-09T05:26:51.945Z,9.98
2022-10-09T05:29:18.644Z,10.03
2022-10-09T05:31:49.328Z,10.04
2022-10-09T05:34:16.243Z,10.04
2022-10-09T05:36:42.787Z,10.02
2022-10-09T05:39:09.362Z,10.07
2022-10-09T05:41:36.047Z,10.10
2022-10-09T05:44:03.660Z,10.13
2022-10-09T05:46:30.981Z,10.10
2022-10-09T05:49:06.749Z,10.20
2022-10-09T05:51:36.667Z,10.32
2022-10-09T05:54:04.715Z,10.44
2022-10-09T05:56:35.117Z,10.66
2022-10-09T05:59:04.445Z,10.95
2022-10-09T06:01:37.031Z,11.17
2022-10-09T06:04:04.700Z,11.35
2022-10-09T06:06:35.557Z,11.46
2022-10-09T06:09:02.125Z,11.56
2022-10-09T06:11:34.433Z,11.62
2022-10-09T06:14:02.489Z,11.63
2022-10-09T06:16:32.586Z,11.56
2022-10-09T06:18:59.577Z,11.61
2022-10-09T06:21:26.740Z,11.58
2022-10-09T06:23:58.081Z,11.74
2022-10-09T06:26:26.296Z,11.86
2022-10-09T06:28:53.013Z,11.65
2022-10-09T06:31:22.598Z,11.80
2022-10-09T06:33:50.734Z,11.88
2022-10-09T06:36:21.115Z,12.02
2022-10-09T06:38:48.097Z,12.34
2022-10-09T06:41:20.616Z,12.21
2022-10-09T06:43:58.526Z,12.16
2022-10-09T06:46:28.190Z,11.85
2022-10-09T06:48:55.060Z,11.90
2022-10-09T06:51:23.607Z,11.99
2022-10-09T06:53:53.389Z,11.98
2022-10-09T06:56:22.544Z,12.32
2022-10-09T06:58:49.635Z,12.29
2022-10-09T07:01:19.672Z,12.34
2022-10-09T07:03:48.764Z,12.23
2022-10-09T07:06:20.549Z,12.33
2022-10-09T07:08:49.769Z,12.21
2022-10-09T07:11:21.001Z,12.27
2022-10-09T07:13:49.822Z,11.97
2022-10-09T07:16:21.277Z,11.96
2022-10-09T07:18:48.312Z,11.69
2022-10-09T07:21:15.780Z,11.82
2022-10-09T07:23:42.765Z,11.80
2022-10-09T07:26:14.089Z,11.80
2022-10-09T07:28:41.979Z,11.80
2022-10-09T07:31:08.889Z,11.74
2022-10-09T07:33:35.573Z,11.91
2022-10-09T07:36:04.589Z,12.08
2022-10-09T07:38:31.958Z,12.11
2022-10-09T07:41:06.816Z,12.24
2022-10-09T07:43:35.555Z,12.35
2022-10-09T07:46:03.925Z,12.39
2022-10-09T07:48:30.869Z,12.41
2022-10-09T07:50:57.760Z,12.35
2022-10-09T07:53:24.372Z,12.29
2022-10-09T07:55:50.964Z,12.29
2022-10-09T07:58:17.849Z,12.25
2022-10-09T08:00:44.455Z,12.21
2022-10-09T08:03:11.043Z,12.42
2022-10-09T08:05:37.780Z,12.52
2022-10-09T08:08:04.918Z,12.78
2022-10-09T08:10:32.254Z,12.79
2022-10-09T08:12:59.093Z,12.68
2022-10-09T08:15:27.108Z,12.60
2022-10-09T08:17:55.048Z,12.49
2022-10-09T08:20:21.806Z,12.56
2022-10-09T08:22:48.626Z,12.44
2022-10-09T08:25:15.449Z,12.74
2022-10-09T08:27:42.100Z,12.61
2022-10-09T08:30:09.094Z,12.68
2022-10-09T08:32:35.649Z,12.81
2022-10-09T08:35:02.244Z,12.88
2022-10-09T08:37:28.761Z,12.95
2022-10-09T08:39:59.765Z,12.90
2022-10-09T08:42:32.576Z,12.90
2022-10-09T08:44:59.411Z,12.87
2022-10-09T08:47:33.197Z,12.82
2022-10-09T08:50:09.012Z,13.03
2022-10-09T08:52:49.871Z,13.02
2022-10-09T08:55:26.657Z,13.15
2022-10-09T08:57:55.931Z,13.02
2022-10-09T09:00:27.151Z,13.37
2022-10-09T09:03:23.856Z,13.52
2022-10-09T09:05:56.419Z,13.68
2022-10-09T09:08:28.851Z,13.58
2022-10-09T09:11:20.600Z,13.53
2022-10-09T09:14:15.133Z,13.66
2022-10-09T09:17:00.968Z,13.40
2022-10-09T09:19:59.443Z,13.63
2022-10-09T09:22:27.240Z,13.92
2022-10-09T09:24:59.061Z,13.75
2022-10-09T09:27:36.811Z,13.59
2022-10-09T09:30:18.369Z,13.73
2022-10-09T09:33:11.547Z,13.77
2022-10-09T09:35:49.729Z,13.88
2022-10-09T09:38:16.768Z,13.88
2022-10-09T09:40:47.262Z,14.03
2022-10-09T09:43:20.097Z,14.20
2022-10-09T09:45:47.705Z,14.21
2022-10-09T09:48:20.400Z,14.14
2022-10-09T09:51:04.985Z,14.16
2022-10-09T09:53:45.875Z,14.15
2022-10-09T09:56:12.572Z,13.98
2022-10-09T09:58:40.791Z,13.89
2022-10-09T10:01:13.602Z,13.99
2022-10-09T10:03:50.244Z,14.04
2022-10-09T10:06:29.881Z,14.08
2022-10-09T10:09:18.244Z,14.25
2022-10-09T10:11:49.536Z,14.58
2022-10-09T10:14:18.022Z,14.20
2022-10-09T10:16:50.014Z,14.24
2022-10-09T10:19:38.811Z,14.28
2022-10-09T10:22:07.937Z,14.34
2022-10-09T10:24:42.760Z,14.23
2022-10-09T10:27:17.727Z,14.42
2022-10-09T10:29:46.754Z,14.35
2022-10-09T10:32:25.627Z,14.38
2022-10-09T10:35:04.411Z,14.58
2022-10-09T10:37:33.642Z,14.40
2022-10-09T10:40:12.588Z,14.73
2022-10-09T10:43:07.932Z,14.88
2022-10-09T10:45:58.553Z,14.78
2022-10-09T10:48:50.552Z,14.75
2022-10-09T10:51:17.045Z,14.70
2022-10-09T10:53:59.409Z,14.91
2022-10-09T10:56:38.757Z,15.04
2022-10-09T10:59:24.890Z,15.04
2022-10-09T11:02:17.494Z,14.97
2022-10-09T11:05:22.969Z,14.87
2022-10-09T11:07:59.789Z,14.92
2022-10-09T11:10:38.497Z,15.10
2022-10-09T11:13:21.228Z,15.05
2022-10-09T11:16:05.978Z,15.18
2022-10-09T11:19:04.241Z,15.45
2022-10-09T11:21:58.817Z,15.45
2022-10-09T11:24:57.801Z,15.24
2022-10-09T11:27:34.506Z,15.17
2022-10-09T11:30:08.399Z,14.81
2022-10-09T11:32:43.882Z,14.81
2022-10-09T11:35:20.683Z,15.14
2022-10-09T11:37:58.693Z,14.98
2022-10-09T11:40:40.147Z,15.01
2022-10-09T11:43:22.079Z,15.26
2022-10-09T11:46:15.001Z,15.02
2022-10-09T11:49:15.979Z,15.25
2022-10-09T11:51:50.443Z,14.98
2022-10-09T11:54:20.077Z,15.19
2022-10-09T11:57:15.510Z,15.36
2022-10-09T11:59:42.607Z,15.29
2022-10-09T12:02:21.251Z,15.11
2022-10-09T12:04:55.905Z,15.24
2022-10-09T12:07:30.196Z,15.22
2022-10-09T12:10:09.061Z,15.27
2022-10-09T12:12:38.857Z,15.14
2022-10-09T12:15:25.897Z,15.26
2022-10-09T12:17:52.610Z,15.50
2022-10-09T12:20:25.458Z,15.40
2022-10-09T12:23:24.728Z,15.23
2022-10-09T12:25:45.993Z,15.28
2022-10-09T12:28:29.139Z,15.48
2022-10-09T12:30:59.583Z,15.29
2022-10-09T12:33:29.667Z,15.50
2022-10-09T12:36:06.503Z,15.45
2022-10-09T12:38:33.467Z,15.39
2022-10-09T12:41:05.066Z,15.14
2022-10-09T12:43:33.187Z,15.20
2022-10-09T12:46:00.206Z,15.31
2022-10-09T12:48:29.321Z,15.32
2022-10-09T12:50:56.435Z,15.30
2022-10-09T12:53:28.233Z,15.62
2022-10-09T12:56:00.875Z,15.36
2022-10-09T12:58:37.001Z,15.25
2022-10-09T13:01:06.833Z,15.19
2022-10-09T13:03:37.408Z,15.44
2022-10-09T13:06:46.993Z,15.28
2022-10-09T13:09:22.798Z,15.59
2022-10-09T13:12:06.563Z,15.41
2022-10-09T13:14:41.653Z,15.33
2022-10-09T13:17:28.416Z,15.43
2022-10-09T13:19:57.224Z,15.59
2022-10-09T13:22:31.101Z,15.47
2022-10-09T13:25:01.774Z,15.41
2022-10-09T13:27:32.680Z,15.53
2022-10-09T13:30:00.520Z,15.46
2022-10-09T13:32:27.586Z,15.63
2022-10-09T13:34:55.387Z,15.81
2022-10-09T13:37:25.558Z,15.89
2022-10-09T13:39:58.850Z,15.97
2022-10-09T13:42:28.191Z,16.14
2022-10-09T13:44:54.886Z,15.85
2022-10-09T13:47:24.663Z,15.77
2022-10-09T13:49:51.583Z,15.71
2022-10-09T13:52:18.108Z,15.59
2022-10-09T13:54:45.267Z,15.56
2022-10-09T13:57:12.082Z,15.59
2022-10-09T13:59:39.282Z,15.64
2022-10-09T14:02:05.842Z,15.79
2022-10-09T14:04:32.388Z,15.93
2022-10-09T14:06:59.001Z,16.00
2022-10-09T14:09:25.698Z,15.78
2022-10-09T14:11:52.446Z,15.92
2022-10-09T14:14:19.201Z,15.95
2022-10-09T14:16:49.255Z,15.77
2022-10-09T14:19:16.055Z,15.69
2022-10-09T14:21:43.024Z,15.82
2022-10-09T14:24:10.337Z,15.76
2022-10-09T14:26:37.666Z,15.61
2022-10-09T14:29:04.305Z,15.67
2022-10-09T14:31:30.885Z,15.60
2022-10-09T14:33:59.564Z,15.79
2022-10-09T14:36:26.798Z,15.86
2022-10-09T14:38:53.879Z,15.79
2022-10-09T14:41:20.649Z,15.55
2022-10-09T14:43:48.164Z,15.62
2022-10-09T14:46:17.357Z,15.59
2022-10-09T14:48:45.351Z,15.34
2022-10-09T14:51:17.933Z,15.27
2022-10-09T14:53:44.731Z,15.46
2022-10-09T14:56:14.010Z,15.51
2022-10-09T14:58:40.848Z,15.57
2022-10-09T15:01:11.541Z,15.45
2022-10-09T15:03:38.096Z,15.39
2022-10-09T15:06:07.496Z,15.36
2022-10-09T15:08:36.516Z,15.46
2022-10-09T15:11:03.649Z,15.70
2022-10-09T15:13:30.499Z,15.67
2022-10-09T15:16:04.927Z,15.76
2022-10-09T15:18:31.633Z,15.64
2022-10-09T15:20:59.677Z,15.35
2022-10-09T15:23:27.272Z,15.19
2022-10-09T15:25:56.821Z,14.96
2022-10-09T15:28:24.095Z,14.78
2022-10-09T15:30:53.412Z,14.46
2022-10-09T15:33:22.234Z,14.36
2022-10-09T15:35:51.822Z,14.30
2022-10-09T15:38:21.146Z,14.15
2022-10-09T15:40:50.053Z,14.04
2022-10-09T15:43:19.316Z,14.02
2022-10-09T15:45:46.685Z,13.93
2022-10-09T15:48:21.732Z,13.87
2022-10-09T15:50:51.585Z,13.79
2022-10-09T15:53:19.945Z,13.71
2022-10-09T15:55:48.237Z,13.66
2022-10-09T15:58:16.095Z,13.64
2022-10-09T16:00:47.335Z,13.52
2022-10-09T16:03:15.030Z,13.40
2022-10-09T16:05:48.486Z,13.36
2022-10-09T16:08:16.111Z,13.33
2022-10-09T16:10:48.438Z,13.24
2022-10-09T16:13:16.082Z,13.11
2022-10-09T16:15:44.304Z,13.13
2022-10-09T16:18:11.372Z,13.09
2022-10-09T16:20:40.586Z,13.02
2022-10-09T16:23:08.581Z,12.99
2022-10-09T16:25:36.402Z,12.87
2022-10-09T16:28:03.670Z,12.74
2022-10-09T16:30:30.640Z,12.63
2022-10-09T16:32:57.172Z,12.54
2022-10-09T16:35:23.965Z,12.47
2022-10-09T16:37:53.334Z,12.47
2022-10-09T16:40:25.422Z,12.38
2022-10-09T16:43:02.177Z,12.36
2022-10-09T16:45:29.138Z,12.25
2022-10-09T16:47:59.804Z,12.15
2022-10-09T16:50:26.854Z,12.07
2022-10-09T16:52:53.394Z,12.11
2022-10-09T16:55:19.926Z,12.00
2022-10-09T16:57:46.816Z,12.01
2022-10-09T17:00:16.093Z,11.96
2022-10-09T17:02:45.541Z,11.88
2022-10-09T17:05:12.133Z,11.77
2022-10-09T17:07:38.709Z,11.78
2022-10-09T17:10:05.931Z,11.66
2022-10-09T17:12:32.690Z,11.62
2022-10-09T17:14:59.663Z,11.69
2022-10-09T17:17:27.561Z,11.51
2022-10-09T17:19:54.335Z,11.56
2022-10-09T17:22:21.021Z,11.46
2022-10-09T17:24:47.621Z,11.47
2022-10-09T17:27:14.328Z,11.39
2022-10-09T17:29:40.943Z,11.33
2022-10-09T17:32:09.282Z,11.31
2022-10-09T17:34:35.978Z,11.32
2022-10-09T17:37:02.602Z,11.30
2022-10-09T17:39:29.513Z,11.23
2022-10-09T17:41:56.222Z,11.19
2022-10-09T17:44:23.496Z,11.14
2022-10-09T17:46:50.012Z,11.19
2022-10-09T17:49:16.618Z,11.15
2022-10-09T17:51:43.193Z,11.09
2022-10-09T17:54:15.556Z,11.04
2022-10-09T17:56:42.404Z,11.00
2022-10-09T17:59:09.437Z,10.99
2022-10-09T18:01:36.999Z,10.98
2022-10-09T18:04:03.980Z,10.89
2022-10-09T18:06:32.768Z,10.80
2022-10-09T18:08:59.486Z,10.71
2022-10-09T18:11:26.885Z,10.67
2022-10-09T18:13:54.628Z,10.63
2022-10-09T18:16:36.474Z,10.47
2022-10-09T18:19:14.701Z,10.49
2022-10-09T18:21:43.736Z,10.45
2022-10-09T18:24:11.156Z,10.40
2022-10-09T18:26:37.966Z,10.37
2022-10-09T18:29:04.826Z,10.27
2022-10-09T18:31:31.974Z,10.21
2022-10-09T18:33:59.542Z,10.17
2022-10-09T18:36:31.631Z,10.10
2022-10-09T18:39:04.944Z,10.08
2022-10-09T18:41:32.366Z,10.06
2022-10-09T18:44:00.145Z,10.13
2022-10-09T18:46:29.121Z,10.09
2022-10-09T18:48:55.907Z,10.07
2022-10-09T18:51:25.980Z,10.03
2022-10-09T18:53:56.119Z,10.02
2022-10-09T18:56:22.985Z,9.97
2022-10-09T18:58:52.134Z,9.91
2022-10-09T19:01:19.691Z,9.92
2022-10-09T19:03:49.919Z,9.85
2022-10-09T19:06:18.317Z,9.83
2022-10-09T19:08:45.156Z,9.83
2022-10-09T19:11:14.317Z,9.73
2022-10-09T19:13:42.258Z,9.73
2022-10-09T19:16:09.899Z,9.70
2022-10-09T19:18:37.046Z,9.63
2022-10-09T19:21:03.963Z,9.60
2022-10-09T19:23:30.687Z,9.57
2022-10-09T19:25:58.945Z,9.54
2022-10-09T19:28:30.576Z,9.52
2022-10-09T19:30:57.480Z,9.51
2022-10-09T19:33:24.072Z,9.48
2022-10-09T19:35:55.696Z,9.45
2022-10-09T19:38:22.693Z,9.45
2022-10-09T19:40:50.461Z,9.45
2022-10-09T19:43:19.297Z,9.40
2022-10-09T19:45:49.138Z,9.36
2022-10-09T19:48:17.131Z,9.35
2022-10-09T19:50:45.074Z,9.35
2022-10-09T19:53:12.781Z,9.32
2022-10-09T19:55:39.377Z,9.28
2022-10-09T19:58:06.779Z,9.27
2022-10-09T20:00:33.396Z,9.29
2022-10-09T20:02:59.980Z,9.31
2022-10-09T20:05:26.569Z,9.33
2022-10-09T20:07:53.103Z,9.31
2022-10-09T20:10:19.926Z,9.26
2022-10-09T20:12:46.441Z,9.21
2022-10-09T20:15:13.102Z,9.21
2022-10-09T20:17:39.617Z,9.21
2022-10-09T20:20:06.655Z,9.26
2022-10-09T20:22:33.202Z,9.20
2022-10-09T20:24:59.761Z,9.16
2022-10-09T20:27:26.436Z,9.14
2022-10-09T20:29:53.693Z,9.08
2022-10-09T20:32:20.315Z,9.05
2022-10-09T20:34:46.927Z,9.00
2022-10-09T20:37:13.525Z,8.95
2022-10-09T20:39:40.108Z,8.94
2022-10-09T20:42:06.760Z,8.94
2022-10-09T20:44:33.304Z,8.94
2022-10-09T20:46:59.843Z,8.88
2022-10-09T20:49:26.730Z,8.83
2022-10-09T20:51:53.324Z,8.83
2022-10-09T20:54:21.684Z,8.77
2022-10-09T20:56:48.722Z,8.78
2022-10-09T20:59:16.991Z,8.77
2022-10-09T21:01:43.999Z,8.77
2022-10-09T21:04:12.170Z,8.75
2022-10-09T21:06:38.836Z,8.69
2022-10-09T21:09:05.715Z,8.72
2022-10-09T21:11:34.561Z,8.70
2022-10-09T21:14:02.453Z,8.68
2022-10-09T21:16:29.480Z,8.73
2022-10-09T21:18:59.102Z,8.75
2022-10-09T21:21:26.614Z,8.74
2022-10-09T21:23:55.044Z,8.73
2022-10-09T21:26:22.888Z,8.77
2022-10-09T21:28:50.107Z,8.75
2022-10-09T21:31:19.601Z,8.81
2022-10-09T21:33:47.385Z,8.75
2022-10-09T21:36:28.406Z,8.77
2022-10-09T21:38:54.954Z,8.72
2022-10-09T21:41:22.013Z,8.71
2022-10-09T21:43:48.566Z,8.67
2022-10-09T21:46:15.124Z,8.70
2022-10-09T21:48:41.637Z,8.71
2022-10-09T21:51:08.172Z,8.73
2022-10-09T21:53:34.835Z,8.74
2022-10-09T21:56:04.897Z,8.79
2022-10-09T21:58:31.525Z,8.81
2022-10-09T22:01:00.410Z,8.87
2022-10-09T22:03:28.715Z,8.79
2022-10-09T22:05:55.469Z,8.75
2022-10-09T22:08:23.518Z,8.78
2022-10-09T22:10:50.224Z,8.81
2022-10-09T22:13:17.590Z,8.79
2022-10-09T22:15:48.811Z,8.69
2022-10-09T22:18:17.559Z,8.66
2022-10-09T22:20:47.592Z,8.67
2022-10-09T22:23:14.915Z,8.66
2022-10-09T22:25:41.439Z,8.63
2022-10-09T22:28:08.093Z,8.68
2022-10-09T22:30:34.754Z,8.69
2022-10-09T22:33:01.309Z,8.58
2022-10-09T22:35:27.931Z,8.48
2022-10-09T22:37:54.496Z,8.27
2022-10-09T22:40:21.582Z,8.23
2022-10-09T22:42:48.567Z,8.30
2022-10-09T22:45:15.312Z,8.38
2022-10-09T22:47:41.857Z,8.34
2022-10-09T22:50:08.766Z,8.23
2022-10-09T22:52:35.422Z,8.34
2022-10-09T22:55:02.175Z,8.41
2022-10-09T22:57:28.711Z,8.50
2022-10-09T22:59:55.256Z,8.59
2022-10-09T23:02:21.843Z,8.70
2022-10-09T23:04:48.403Z,8.77
2022-10-09T23:07:15.040Z,8.82
2022-10-09T23:09:41.569Z,8.84
2022-10-09T23:12:08.205Z,8.77
2022-10-09T23:14:34.843Z,8.73
2022-10-09T23:17:01.369Z,8.85
2022-10-09T23:19:27.950Z,8.85
2022-10-09T23:21:54.537Z,8.86
2022-10-09T23:24:21.131Z,8.95
2022-10-09T23:26:50.848Z,9.00
2022-10-09T23:29:19.444Z,8.90
2022-10-09T23:31:46.659Z,8.82
2022-10-09T23:34:13.318Z,8.70
2022-10-09T23:36:39.901Z,8.73
2022-10-09T23:39:07.258Z,8.73
2022-10-09T23:41:34.325Z,8.71
2022-10-09T23:44:00.898Z,8.61
2022-10-09T23:46:30.098Z,8.52
2022-10-09T23:48:57.316Z,8.55
2022-10-09T23:51:25.689Z,8.36
2022-10-09T23:53:52.822Z,8.17
2022-10-09T23:56:24.424Z,8.09
2022-10-09T23:58:51.985Z,8.00
